Bascharage, Luxembourg
Current Conditions -  °F | °C
As of 7:20 PM on Sunday 21 Dec 2014 (Local Time) from ELLX Reporting Station
Drizzle Drizzle  
Wind Chill: 32°   Ceiling: 1200
Heat Index: 41°   Visibility: 5mi
Dew Point: 39°   Wind: 17mph
Humidity: 93%   Direction: 240°WSW
Pressure: 30.39"   Gusts: NA
Location:  49.57°N, 5.91°E
Report Text: ELLX 211820Z 24015KT 210V270 8000 -DZ SCT010 BKN012 05/04 Q1029 NOSIG
Loading
Personal Weather Stations






























Interactive Weather Map New forecast layout! Learn more

10-Day Weather Forecast

Advertisements
Track Severe Weather on mobile